createdAt,value
2023-05-12T00:00:34.391Z,33.89
2023-05-12T00:03:15.134Z,33.73
2023-05-12T00:05:45.754Z,33.66
2023-05-12T00:08:16.283Z,33.88
2023-05-12T00:10:46.986Z,33.77
2023-05-12T00:13:17.609Z,33.96
2023-05-12T00:15:48.201Z,34.10
2023-05-12T00:18:18.823Z,34.18
2023-05-12T00:20:49.568Z,34.11
2023-05-12T00:23:20.064Z,34.11
2023-05-12T00:25:50.753Z,34.19
2023-05-12T00:28:21.608Z,34.23
2023-05-12T00:30:52.165Z,34.20
2023-05-12T00:33:22.772Z,34.16
2023-05-12T00:35:53.206Z,34.25
2023-05-12T00:38:23.787Z,34.17
2023-05-12T00:40:54.554Z,34.33
2023-05-12T00:43:25.034Z,34.29
2023-05-12T00:45:55.739Z,34.55
2023-05-12T00:48:26.784Z,34.42
2023-05-12T00:50:57.892Z,34.45
2023-05-12T00:53:35.104Z,34.45
2023-05-12T00:56:16.948Z,34.53
2023-05-12T00:58:47.935Z,34.62
2023-05-12T01:01:19.559Z,34.63
2023-05-12T01:03:52.613Z,34.71
2023-05-12T01:06:25.851Z,34.71
2023-05-12T01:08:56.636Z,34.60
2023-05-12T01:11:27.739Z,34.65
2023-05-12T01:13:58.336Z,35.00
2023-05-12T01:16:30.905Z,34.99
2023-05-12T01:19:04.977Z,34.93
2023-05-12T01:21:35.742Z,34.85
2023-05-12T01:24:08.219Z,34.92
2023-05-12T01:26:39.575Z,34.92
2023-05-12T01:29:10.507Z,35.06
2023-05-12T01:31:41.472Z,35.12
2023-05-12T01:34:15.326Z,35.03
2023-05-12T01:36:46.140Z,35.03
2023-05-12T01:39:16.716Z,35.19
2023-05-12T01:41:47.658Z,35.34
2023-05-12T01:44:18.189Z,35.22
2023-05-12T01:46:49.760Z,35.34
2023-05-12T01:49:20.447Z,35.28
2023-05-12T01:51:51.905Z,35.39
2023-05-12T01:54:28.229Z,35.40
2023-05-12T01:56:58.780Z,35.48
2023-05-12T01:59:29.780Z,35.53
2023-05-12T02:02:00.518Z,35.44
2023-05-12T02:04:34.732Z,35.40
2023-05-12T02:07:05.707Z,35.53
2023-05-12T02:09:36.608Z,35.60
2023-05-12T02:12:08.151Z,35.45
2023-05-12T02:14:38.752Z,35.49
2023-05-12T02:17:09.345Z,35.54
2023-05-12T02:19:39.849Z,35.71
2023-05-12T02:22:10.939Z,35.70
2023-05-12T02:24:41.677Z,35.69
2023-05-12T02:27:12.571Z,35.64
2023-05-12T02:29:43.164Z,35.82
2023-05-12T02:32:13.752Z,35.83
2023-05-12T02:34:47.386Z,35.81
2023-05-12T02:37:18.089Z,35.78
2023-05-12T02:39:48.832Z,35.97
2023-05-12T02:42:19.444Z,36.12
2023-05-12T02:44:50.085Z,36.00
2023-05-12T02:47:21.106Z,36.02
2023-05-12T02:49:51.658Z,36.04
2023-05-12T02:52:22.501Z,36.00
2023-05-12T02:54:53.094Z,36.21
2023-05-12T02:57:23.966Z,36.24
2023-05-12T02:59:54.445Z,36.09
2023-05-12T03:02:25.176Z,36.25
2023-05-12T03:04:55.804Z,36.15
2023-05-12T03:07:26.432Z,36.20
2023-05-12T03:09:57.600Z,36.29
2023-05-12T03:12:29.412Z,36.51
2023-05-12T03:15:01.554Z,36.18
2023-05-12T03:17:32.146Z,36.42
2023-05-12T03:20:02.793Z,36.37
2023-05-12T03:22:33.380Z,36.35
2023-05-12T03:25:05.214Z,36.39
2023-05-12T03:27:36.185Z,36.49
2023-05-12T03:30:09.717Z,36.57
2023-05-12T03:32:40.676Z,36.46
2023-05-12T03:35:12.916Z,36.44
2023-05-12T03:37:43.404Z,36.55
2023-05-12T03:40:18.654Z,36.78
2023-05-12T03:42:50.296Z,36.60
2023-05-12T03:45:21.723Z,36.60
2023-05-12T03:47:52.427Z,36.69
2023-05-12T03:50:23.107Z,36.89
2023-05-12T03:52:56.199Z,36.89
2023-05-12T03:55:26.856Z,36.84
2023-05-12T03:57:57.371Z,36.79
2023-05-12T04:00:28.359Z,36.74
2023-05-12T04:02:59.017Z,36.78
2023-05-12T04:05:29.715Z,36.85
2023-05-12T04:08:00.242Z,37.06
2023-05-12T04:10:30.752Z,36.84
2023-05-12T04:13:01.272Z,36.95
2023-05-12T04:15:32.346Z,36.94
2023-05-12T04:18:02.880Z,37.04
2023-05-12T04:20:33.625Z,37.14
2023-05-12T04:23:04.278Z,37.15
2023-05-12T04:25:35.261Z,37.24
2023-05-12T04:28:05.986Z,36.94
2023-05-12T04:30:37.156Z,37.13
2023-05-12T04:33:07.925Z,37.36
2023-05-12T04:35:38.916Z,37.54
2023-05-12T04:38:09.744Z,37.38
2023-05-12T04:40:41.159Z,37.37
2023-05-12T04:44:00.180Z,37.57
2023-05-12T04:46:03.691Z,37.43
2023-05-12T04:48:34.276Z,37.72
2023-05-12T04:51:06.007Z,37.39
2023-05-12T04:53:36.665Z,37.47
2023-05-12T04:56:07.512Z,37.79
2023-05-12T04:58:41.367Z,37.67
2023-05-12T05:01:13.759Z,37.86
2023-05-12T05:03:44.900Z,37.86
2023-05-12T05:06:15.766Z,37.72
2023-05-12T05:08:46.617Z,37.94
2023-05-12T05:11:17.199Z,37.67
2023-05-12T05:13:49.362Z,37.91
2023-05-12T05:16:21.132Z,37.90
2023-05-12T05:18:53.244Z,38.04
2023-05-12T05:21:23.834Z,37.86
2023-05-12T05:23:54.542Z,37.85
2023-05-12T05:26:27.507Z,38.17
2023-05-12T05:28:58.041Z,38.25
2023-05-12T05:31:29.127Z,38.04
2023-05-12T05:34:00.600Z,38.18
2023-05-12T05:36:31.914Z,38.04
2023-05-12T05:39:02.469Z,38.22
2023-05-12T05:41:33.033Z,38.19
2023-05-12T05:44:03.832Z,38.00
2023-05-12T05:46:34.540Z,38.14
2023-05-12T05:49:05.201Z,38.05
2023-05-12T05:51:35.639Z,38.12
2023-05-12T05:54:07.228Z,38.06
2023-05-12T05:56:37.845Z,38.07
2023-05-12T05:59:08.472Z,38.05
2023-05-12T06:01:39.049Z,38.08
2023-05-12T06:04:09.629Z,38.04
2023-05-12T06:06:40.306Z,38.05
2023-05-12T06:09:12.533Z,37.99
2023-05-12T06:11:43.104Z,38.05
2023-05-12T06:14:13.634Z,37.99
2023-05-12T06:16:44.287Z,38.01
2023-05-12T06:19:15.971Z,37.80
2023-05-12T06:21:46.483Z,37.85
2023-05-12T06:24:17.064Z,37.93
2023-05-12T06:26:47.635Z,37.86
2023-05-12T06:29:18.216Z,37.87
2023-05-12T06:31:48.845Z,37.85
2023-05-12T06:34:19.458Z,37.81
2023-05-12T06:36:50.127Z,37.77
2023-05-12T06:39:20.748Z,37.64
2023-05-12T06:41:51.265Z,37.76
2023-05-12T06:44:25.090Z,37.65
2023-05-12T06:46:55.833Z,37.72
2023-05-12T06:49:26.465Z,37.65
2023-05-12T06:51:57.012Z,37.67
2023-05-12T06:54:27.535Z,37.63
2023-05-12T06:56:58.038Z,37.68
2023-05-12T06:59:28.697Z,37.56
2023-05-12T07:01:59.355Z,37.51
2023-05-12T07:04:30.040Z,37.55
2023-05-12T07:07:00.512Z,37.52
2023-05-12T07:09:31.057Z,37.31
2023-05-12T07:12:01.600Z,37.05
2023-05-12T07:14:32.323Z,36.73
2023-05-12T07:17:03.036Z,36.84
2023-05-12T07:19:33.616Z,36.88
2023-05-12T07:22:04.606Z,36.83
2023-05-12T07:24:35.375Z,36.80
2023-05-12T07:27:06.290Z,36.78
2023-05-12T07:29:36.939Z,35.99
2023-05-12T07:32:07.589Z,36.35
2023-05-12T07:34:38.775Z,36.05
2023-05-12T07:37:09.254Z,36.33
2023-05-12T07:39:39.868Z,36.74
2023-05-12T07:42:11.238Z,36.62
2023-05-12T07:44:42.494Z,36.68
2023-05-12T07:47:13.063Z,36.39
2023-05-12T07:49:43.749Z,36.03
2023-05-12T07:52:16.840Z,35.82
2023-05-12T07:54:47.382Z,35.51
2023-05-12T07:57:17.917Z,35.33
2023-05-12T07:59:48.413Z,35.76
2023-05-12T08:02:20.735Z,35.98
2023-05-12T08:04:51.614Z,35.98
2023-05-12T08:07:22.114Z,35.53
2023-05-12T08:09:52.726Z,35.64
2023-05-12T08:12:24.003Z,35.09
2023-05-12T08:14:54.756Z,35.19
2023-05-12T08:17:28.485Z,35.14
2023-05-12T08:19:59.820Z,34.98
2023-05-12T08:22:30.410Z,35.24
2023-05-12T08:25:00.927Z,35.21
2023-05-12T08:27:31.527Z,35.29
2023-05-12T08:30:02.078Z,34.39
2023-05-12T08:32:33.309Z,34.44
2023-05-12T08:35:04.266Z,34.75
2023-05-12T08:37:35.102Z,34.52
2023-05-12T08:40:11.202Z,34.38
2023-05-12T08:42:43.982Z,35.01
2023-05-12T08:45:14.613Z,33.61
2023-05-12T08:47:46.232Z,34.63
2023-05-12T08:50:18.520Z,33.84
2023-05-12T08:52:49.756Z,33.74
2023-05-12T08:55:20.958Z,33.92
2023-05-12T08:57:51.732Z,34.23
2023-05-12T09:00:24.172Z,33.14
2023-05-12T09:02:55.930Z,32.73
2023-05-12T09:05:28.020Z,33.70
2023-05-12T09:07:59.267Z,31.64
2023-05-12T09:13:05.449Z,33.26
2023-05-12T09:15:40.365Z,33.32
2023-05-12T09:18:11.029Z,32.04
2023-05-12T09:20:41.938Z,32.42
2023-05-12T09:23:19.532Z,32.24
2023-05-12T09:26:00.381Z,30.84
2023-05-12T09:28:37.770Z,31.88
2023-05-12T09:31:18.649Z,32.24
2023-05-12T09:33:49.402Z,32.41
2023-05-12T09:36:20.507Z,32.28
2023-05-12T09:39:04.646Z,32.14
2023-05-12T09:41:37.803Z,32.42
2023-05-12T09:44:09.704Z,32.64
2023-05-12T09:46:41.120Z,32.71
2023-05-12T09:49:11.812Z,31.97
2023-05-12T09:51:42.765Z,32.86
2023-05-12T09:54:14.093Z,31.95
2023-05-12T09:56:46.230Z,32.44
2023-05-12T09:59:17.229Z,32.44
2023-05-12T10:01:47.985Z,32.77
2023-05-12T10:04:19.019Z,32.83
2023-05-12T10:06:50.081Z,32.86
2023-05-12T10:09:21.806Z,32.65
2023-05-12T10:11:54.170Z,31.76
2023-05-12T10:14:25.136Z,32.17
2023-05-12T10:16:56.243Z,32.36
2023-05-12T10:19:27.131Z,32.18
2023-05-12T10:21:57.889Z,32.17
2023-05-12T10:24:29.646Z,31.86
2023-05-12T10:27:01.153Z,31.92
2023-05-12T10:29:33.076Z,31.84
2023-05-12T10:32:03.846Z,31.27
2023-05-12T10:34:36.836Z,31.47
2023-05-12T10:37:09.281Z,30.46
2023-05-12T10:39:47.679Z,29.08
2023-05-12T10:42:25.217Z,29.23
2023-05-12T10:44:56.708Z,30.56
2023-05-12T10:47:27.978Z,30.86
2023-05-12T10:49:59.598Z,30.72
2023-05-12T10:52:30.108Z,30.13
2023-05-12T10:55:02.815Z,30.81
2023-05-12T10:57:34.499Z,30.44
2023-05-12T11:00:06.016Z,30.36
2023-05-12T11:02:38.516Z,30.21
2023-05-12T11:05:13.520Z,28.84
2023-05-12T11:07:49.632Z,30.48
2023-05-12T11:10:21.907Z,29.86
2023-05-12T11:12:54.305Z,28.28
2023-05-12T11:15:25.026Z,29.77
2023-05-12T11:17:55.618Z,30.41
2023-05-12T11:20:29.481Z,30.36
2023-05-12T11:23:01.350Z,30.22
2023-05-12T11:25:31.920Z,30.21
2023-05-12T11:28:02.538Z,28.09
2023-05-12T11:30:33.223Z,29.75
2023-05-12T11:33:04.240Z,29.08
2023-05-12T11:35:34.983Z,29.68
2023-05-12T11:38:15.392Z,29.51
2023-05-12T11:40:46.197Z,29.91
2023-05-12T11:43:21.157Z,29.64
2023-05-12T11:45:51.711Z,29.04
2023-05-12T11:48:22.766Z,29.90
2023-05-12T11:50:53.266Z,29.57
2023-05-12T11:53:25.207Z,29.28
2023-05-12T11:55:57.346Z,29.38
2023-05-12T11:58:30.806Z,29.06
2023-05-12T12:01:10.112Z,29.19
2023-05-12T12:03:48.708Z,27.89
2023-05-12T12:06:19.697Z,29.02
2023-05-12T12:08:54.398Z,27.55
2023-05-12T12:11:26.926Z,28.11
2023-05-12T12:13:57.966Z,27.68
2023-05-12T12:16:29.150Z,28.67
2023-05-12T12:18:59.832Z,28.27
2023-05-12T12:21:30.381Z,28.66
2023-05-12T12:24:00.906Z,28.38
2023-05-12T12:26:31.485Z,27.75
2023-05-12T12:29:01.964Z,28.16
2023-05-12T12:31:34.505Z,27.96
2023-05-12T12:34:05.506Z,27.65
2023-05-12T12:36:35.986Z,27.29
2023-05-12T12:39:06.793Z,27.88
2023-05-12T12:41:37.429Z,28.45
2023-05-12T12:44:08.344Z,28.00
2023-05-12T12:46:39.028Z,28.34
2023-05-12T12:49:09.510Z,28.49
2023-05-12T12:51:46.190Z,27.98
2023-05-12T12:54:17.740Z,27.26
2023-05-12T12:56:48.281Z,27.79
2023-05-12T12:59:18.788Z,27.24
2023-05-12T13:01:49.574Z,28.13
2023-05-12T13:04:23.191Z,28.17
2023-05-12T13:06:53.851Z,27.31
2023-05-12T13:09:24.560Z,27.17
2023-05-12T13:11:55.185Z,27.65
2023-05-12T13:14:51.633Z,27.42
2023-05-12T13:17:22.070Z,27.49
2023-05-12T13:19:52.831Z,27.60
2023-05-12T13:22:23.321Z,27.54
2023-05-12T13:24:53.967Z,27.62
2023-05-12T13:27:24.522Z,27.85
2023-05-12T13:29:55.088Z,26.82
2023-05-12T13:32:25.616Z,26.96
2023-05-12T13:34:56.203Z,26.40
2023-05-12T13:37:27.165Z,27.00
2023-05-12T13:39:57.654Z,27.17
2023-05-12T13:42:28.242Z,27.44
2023-05-12T13:44:58.769Z,27.27
2023-05-12T13:47:29.391Z,27.05
2023-05-12T13:49:59.928Z,27.34
2023-05-12T13:52:30.524Z,26.52
2023-05-12T13:55:01.094Z,27.00
2023-05-12T13:57:31.973Z,27.51
2023-05-12T14:00:03.546Z,27.66
2023-05-12T14:02:34.408Z,27.42
2023-05-12T14:05:05.560Z,27.58
2023-05-12T14:07:36.178Z,27.58
2023-05-12T14:10:07.515Z,27.46
2023-05-12T14:12:38.081Z,27.23
2023-05-12T14:15:24.094Z,27.68
2023-05-12T14:18:00.049Z,27.27
2023-05-12T14:20:30.642Z,27.47
2023-05-12T14:23:01.813Z,27.52
2023-05-12T14:25:32.297Z,26.76
2023-05-12T14:28:02.797Z,26.48
2023-05-12T14:30:35.168Z,26.98
2023-05-12T14:33:05.899Z,27.00
2023-05-12T14:35:36.397Z,27.15
2023-05-12T14:38:06.922Z,27.44
2023-05-12T14:40:39.636Z,27.11
2023-05-12T14:43:10.823Z,27.52
2023-05-12T14:45:41.312Z,27.32
2023-05-12T14:48:11.840Z,27.48
2023-05-12T14:50:43.743Z,27.45
2023-05-12T14:53:14.585Z,27.52
2023-05-12T14:55:45.898Z,27.37
2023-05-12T14:58:17.822Z,27.15
2023-05-12T15:00:48.762Z,26.92
2023-05-12T15:03:20.891Z,27.14
2023-05-12T15:08:25.220Z,27.52
2023-05-12T15:10:55.858Z,27.52
2023-05-12T15:13:26.420Z,27.51
2023-05-12T15:15:57.206Z,27.43
2023-05-12T15:18:27.876Z,27.69
2023-05-12T15:20:58.556Z,27.47
2023-05-12T15:23:29.242Z,27.63
2023-05-12T15:26:06.914Z,27.43
2023-05-12T15:28:45.870Z,27.44
2023-05-12T15:31:16.448Z,27.44
2023-05-12T15:33:46.940Z,27.43
2023-05-12T15:36:17.530Z,27.46
2023-05-12T15:38:48.361Z,27.42
2023-05-12T15:41:18.974Z,27.32
2023-05-12T15:43:49.510Z,27.33
2023-05-12T15:46:20.216Z,27.45
2023-05-12T15:48:51.005Z,27.61
2023-05-12T15:51:21.796Z,27.56
2023-05-12T15:53:52.816Z,27.62
2023-05-12T15:56:23.351Z,27.52
2023-05-12T15:58:53.983Z,27.65
2023-05-12T16:01:24.727Z,27.62
2023-05-12T16:03:55.561Z,27.60
2023-05-12T16:06:26.373Z,27.55
2023-05-12T16:08:56.856Z,27.77
2023-05-12T16:11:27.328Z,27.63
2023-05-12T16:13:58.287Z,27.55
2023-05-12T16:16:28.735Z,27.52
2023-05-12T16:18:59.360Z,27.65
2023-05-12T16:21:30.219Z,27.65
2023-05-12T16:24:00.809Z,27.71
2023-05-12T16:26:31.495Z,27.66
2023-05-12T16:29:02.174Z,27.71
2023-05-12T16:31:32.794Z,27.69
2023-05-12T16:34:04.288Z,27.69
2023-05-12T16:36:34.779Z,27.72
2023-05-12T16:39:05.592Z,27.75
2023-05-12T16:41:36.425Z,27.74
2023-05-12T16:44:07.094Z,27.81
2023-05-12T16:46:39.333Z,27.76
2023-05-12T16:49:11.904Z,27.93
2023-05-12T16:51:42.402Z,27.96
2023-05-12T16:54:12.955Z,27.91
2023-05-12T16:56:43.472Z,27.96
2023-05-12T16:59:13.998Z,27.91
2023-05-12T17:01:44.615Z,27.84
2023-05-12T17:04:15.707Z,27.88
2023-05-12T17:06:46.473Z,28.03
2023-05-12T17:09:18.059Z,28.05
2023-05-12T17:11:48.668Z,28.01
2023-05-12T17:14:19.540Z,28.04
2023-05-12T17:16:50.145Z,28.07
2023-05-12T17:19:21.426Z,28.05
2023-05-12T17:21:52.158Z,28.05
2023-05-12T17:24:22.777Z,28.06
2023-05-12T17:26:53.882Z,28.17
2023-05-12T17:29:24.332Z,28.22
2023-05-12T17:31:55.024Z,28.28
2023-05-12T17:34:25.729Z,28.31
2023-05-12T17:36:56.262Z,28.38
2023-05-12T17:39:26.790Z,28.41
2023-05-12T17:41:57.606Z,28.41
2023-05-12T17:44:28.141Z,28.52
2023-05-12T17:46:58.567Z,28.50
2023-05-12T17:49:29.028Z,28.50
2023-05-12T17:51:59.759Z,28.60
2023-05-12T17:54:30.281Z,28.55
2023-05-12T17:57:00.926Z,28.65
2023-05-12T17:59:31.411Z,28.58
2023-05-12T18:02:02.015Z,28.78
2023-05-12T18:04:32.944Z,28.91
2023-05-12T18:07:03.477Z,29.05
2023-05-12T18:09:34.145Z,28.99
2023-05-12T18:12:04.898Z,29.08
2023-05-12T18:14:35.468Z,29.21
2023-05-12T18:17:06.331Z,29.17
2023-05-12T18:19:36.887Z,29.15
2023-05-12T18:22:07.942Z,29.34
2023-05-12T18:24:38.530Z,29.45
2023-05-12T18:27:09.105Z,29.58
2023-05-12T18:29:39.987Z,29.75
2023-05-12T18:32:10.597Z,29.73
2023-05-12T18:34:44.157Z,29.75
2023-05-12T18:37:15.810Z,29.99
2023-05-12T18:39:46.314Z,29.83
2023-05-12T18:42:16.763Z,29.91
2023-05-12T18:44:47.386Z,29.92
2023-05-12T18:47:17.898Z,30.05
2023-05-12T18:49:48.370Z,30.25
2023-05-12T18:52:20.822Z,30.17
2023-05-12T18:54:51.371Z,30.17
2023-05-12T18:57:21.909Z,30.05
2023-05-12T18:59:52.380Z,30.21
2023-05-12T19:02:22.988Z,30.21
2023-05-12T19:04:53.631Z,30.23
2023-05-12T19:07:24.300Z,30.37
2023-05-12T19:09:54.827Z,30.27
2023-05-12T19:12:25.362Z,30.49
2023-05-12T19:14:56.465Z,30.55
2023-05-12T19:17:27.057Z,30.61
2023-05-12T19:19:57.725Z,30.78
2023-05-12T19:22:28.322Z,30.63
2023-05-12T19:24:58.818Z,30.79
2023-05-12T19:27:29.422Z,30.78
2023-05-12T19:30:02.291Z,30.69
2023-05-12T19:32:33.527Z,30.78
2023-05-12T19:35:05.339Z,30.96
2023-05-12T19:37:35.995Z,31.02
2023-05-12T19:40:07.439Z,31.02
2023-05-12T19:42:38.664Z,31.16
2023-05-12T19:45:10.580Z,31.24
2023-05-12T19:47:41.697Z,31.31
2023-05-12T19:50:12.795Z,31.35
2023-05-12T19:52:43.413Z,31.40
2023-05-12T19:55:13.904Z,31.46
2023-05-12T19:57:44.602Z,31.68
2023-05-12T20:00:15.791Z,31.60
2023-05-12T20:02:46.620Z,31.61
2023-05-12T20:05:17.391Z,31.63
2023-05-12T20:07:48.612Z,31.67
2023-05-12T20:10:19.313Z,31.82
2023-05-12T20:12:49.772Z,31.83
2023-05-12T20:15:20.596Z,32.04
2023-05-12T20:17:51.411Z,32.05
2023-05-12T20:20:22.561Z,31.96
2023-05-12T20:22:53.202Z,32.01
2023-05-12T20:25:27.015Z,32.09
2023-05-12T20:27:57.615Z,32.19
2023-05-12T20:30:28.266Z,32.11
2023-05-12T20:32:58.916Z,32.13
2023-05-12T20:35:29.678Z,32.29
2023-05-12T20:38:00.422Z,32.32
2023-05-12T20:40:30.912Z,32.53
2023-05-12T20:43:01.577Z,32.62
2023-05-12T20:45:32.924Z,32.55
2023-05-12T20:48:04.659Z,32.45
2023-05-12T20:50:35.441Z,32.47
2023-05-12T20:53:05.886Z,32.58
2023-05-12T20:55:36.847Z,32.63
2023-05-12T20:58:07.437Z,32.61
2023-05-12T21:00:38.648Z,32.73
2023-05-12T21:03:14.526Z,32.73
2023-05-12T21:05:47.799Z,32.89
2023-05-12T21:08:18.364Z,32.82
2023-05-12T21:10:49.507Z,32.79
2023-05-12T21:13:20.426Z,32.84
2023-05-12T21:15:51.526Z,32.87
2023-05-12T21:18:22.120Z,33.09
2023-05-12T21:20:52.676Z,33.20
2023-05-12T21:23:23.391Z,33.29
2023-05-12T21:25:55.467Z,33.25
2023-05-12T21:28:26.048Z,33.35
2023-05-12T21:30:56.874Z,33.22
2023-05-12T21:33:27.945Z,33.30
2023-05-12T21:35:58.815Z,33.33
2023-05-12T21:38:29.524Z,33.19
2023-05-12T21:41:00.562Z,33.24
2023-05-12T21:43:31.184Z,33.60
2023-05-12T21:46:04.542Z,33.48
2023-05-12T21:48:35.280Z,33.62
2023-05-12T21:51:06.100Z,33.62
2023-05-12T21:53:36.689Z,33.76
2023-05-12T21:56:09.098Z,33.84
2023-05-12T21:58:39.754Z,33.83
2023-05-12T22:01:10.260Z,33.86
2023-05-12T22:03:41.842Z,33.89
2023-05-12T22:06:13.138Z,33.96
2023-05-12T22:08:43.747Z,33.78
2023-05-12T22:11:14.233Z,34.11
2023-05-12T22:13:44.780Z,34.18
2023-05-12T22:16:15.398Z,34.23
2023-05-12T22:18:46.189Z,34.19
2023-05-12T22:21:16.700Z,34.18
2023-05-12T22:23:47.208Z,34.34
2023-05-12T22:26:17.687Z,34.31
2023-05-12T22:28:48.164Z,34.38
2023-05-12T22:31:18.837Z,34.42
2023-05-12T22:33:49.403Z,34.42
2023-05-12T22:36:19.888Z,34.47
2023-05-12T22:38:50.353Z,34.42
2023-05-12T22:41:20.942Z,34.55
2023-05-12T22:43:51.677Z,34.61
2023-05-12T22:46:22.220Z,34.61
2023-05-12T22:48:53.305Z,34.69
2023-05-12T22:51:23.955Z,34.72
2023-05-12T22:53:54.501Z,34.92
2023-05-12T22:56:24.972Z,34.76
2023-05-12T22:58:55.561Z,34.75
2023-05-12T23:01:26.248Z,34.85
2023-05-12T23:03:56.851Z,35.07
2023-05-12T23:06:27.344Z,34.89
2023-05-12T23:08:57.842Z,35.02
2023-05-12T23:11:28.372Z,35.09
2023-05-12T23:13:58.988Z,35.01
2023-05-12T23:16:29.467Z,35.15
2023-05-12T23:19:00.108Z,35.17
2023-05-12T23:21:30.710Z,35.38
2023-05-12T23:24:01.406Z,35.29
2023-05-12T23:26:31.991Z,35.28
2023-05-12T23:29:02.624Z,35.42
2023-05-12T23:31:33.201Z,35.33
2023-05-12T23:34:03.811Z,35.63
2023-05-12T23:36:34.065Z,35.61
2023-05-12T23:39:04.836Z,35.32
2023-05-12T23:41:36.552Z,35.52
2023-05-12T23:44:07.300Z,35.63
2023-05-12T23:46:37.872Z,35.46
2023-05-12T23:49:08.493Z,35.52
2023-05-12T23:51:39.010Z,35.96
2023-05-12T23:54:09.602Z,35.84
2023-05-12T23:56:40.139Z,35.99
2023-05-12T23:59:10.755Z,35.89
